Weather Underground Historische gegevens

Dagelijkse Samenvatting mei 20, 2018 Eenheden:  Metrisch    Engels   Beide
« Vorige Dag
Volgende Dag »
Dagelijkse Wekelijkse Maandelijkse Jaarlijkse Aangepaste
  Huidig: Hoog: Laag: Gemiddeld:
Temperatuur: -4.1 °C -17.8 °C -14.3 °C -9.8 °C
Dauwpunt: -10.6 °C -17.8 °C -43.6 °C -28.2 °C
Vochtigheid: 48 % Humidity % 1 % 24 %
Wind snelheid: 10.3 km/h 0 km/h 0 km/h 4.3 km/h
Windvlaag: 12.9 km/h 0 km/h - -
Wind:NE - - ESE
Luchtdruk: 34554.1 hPa 0 hPa 34554.1 hPa -
Neerslag: 0 mm      
Historical Graphs
 
 
Tabel voor mei 20, 2018
Tijd Temperatuur Dauwpunt Luchtdruk Wind Wind snelheid Windvlaag Vochtigheid Regenval per uur
-17.8 °C -17.8 °C 0 hPa Calm     Humidity % 0 mm
00:01 -13.1 °C -42.8 °C 34669.3 hPa Calm   2.6 km/h 1 % 0 mm
00:16 -13.2 °C -42.9 °C 34659.1 hPa Calm   5.1 km/h 1 % 0 mm
00:31 -13.3 °C -43 °C 34669.3 hPa Calm   2.6 km/h 1 % 0 mm
00:46 -13.4 °C -43.1 °C 34669.3 hPa Calm   2.6 km/h 1 % 0 mm
01:01 -13.5 °C -43.1 °C 34669.3 hPa Calm     1 % 0 mm
01:16 -13.6 °C -43.2 °C 34669.3 hPa Calm     1 % 0 mm
01:31 -13.7 °C -43.2 °C 34669.3 hPa Calm   2.6 km/h 1 % 0 mm
01:46 -13.8 °C -43.3 °C 34669.3 hPa Calm   2.6 km/h 1 % 0 mm
02:01 -13.8 °C -43.3 °C 34669.3 hPa Calm   2.6 km/h 1 % 0 mm
02:16 -13.9 °C -43.3 °C 34669.3 hPa Calm   5.1 km/h 1 % 0 mm
02:31 -13.9 °C -43.3 °C 34659.1 hPa Calm   2.6 km/h 1 % 0 mm
02:46 -13.9 °C -43.3 °C 34659.1 hPa Calm   2.6 km/h 1 % 0 mm
03:01 -13.9 °C -43.3 °C 34659.1 hPa Calm   2.6 km/h 1 % 0 mm
03:16 -13.9 °C -43.4 °C 34659.1 hPa Calm   5.1 km/h 1 % 0 mm
03:31 -14 °C -43.4 °C 34659.1 hPa Calm   2.6 km/h 1 % 0 mm
03:46 -14 °C -43.4 °C 34659.1 hPa Calm   5.1 km/h 1 % 0 mm
04:01 -14.1 °C -43.4 °C 34659.1 hPa ESE 5.1 km/h 7.7 km/h 1 % 0 mm
04:16 -14.1 °C -43.4 °C 34659.1 hPa ESE 2.6 km/h 7.7 km/h 1 % 0 mm
04:31 -14.2 °C -43.5 °C 34659.1 hPa Calm   5.1 km/h 1 % 0 mm
04:46 -14.3 °C -43.6 °C 34659.1 hPa ESE 5.1 km/h 7.7 km/h 1 % 0 mm
05:01 -14.3 °C -43.6 °C 34669.3 hPa ESE 5.1 km/h 7.7 km/h 1 % 0 mm
05:16 -14.3 °C -43.6 °C 34659.1 hPa ESE 2.6 km/h 10.3 km/h 1 % 0 mm
05:31 -14.3 °C -43.6 °C 34659.1 hPa ESE 7.7 km/h 7.7 km/h 1 % 0 mm
05:46 -14.3 °C -43.6 °C 34659.1 hPa ESE 5.1 km/h 7.7 km/h 1 % 0 mm
06:01 -14.3 °C -43.6 °C 34659.1 hPa East 5.1 km/h 10.3 km/h 1 % 0 mm
06:16 -14.3 °C -43.6 °C 34659.1 hPa East 5.1 km/h 10.3 km/h 1 % 0 mm
06:31 -14.2 °C -43.6 °C 34659.1 hPa Calm   7.7 km/h 1 % 0 mm
06:46 -14.2 °C -43.6 °C 34659.1 hPa Calm   5.1 km/h 1 % 0 mm
07:01 -14.3 °C -43.6 °C 34669.3 hPa Calm   2.6 km/h 1 % 0 mm
07:16 -14.1 °C -43.4 °C 34669.3 hPa Calm   2.6 km/h 1 % 0 mm
07:31 -13.6 °C -43.2 °C 34669.3 hPa Calm   5.1 km/h 1 % 0 mm
07:46 -13.2 °C -42.9 °C 34669.3 hPa East 2.6 km/h 7.7 km/h 1 % 0 mm
08:01 -12.7 °C -42.6 °C 34669.3 hPa East 5.1 km/h 7.7 km/h 1 % 0 mm
08:16 -12.2 °C -42.3 °C 34669.3 hPa East 2.6 km/h 10.3 km/h 1 % 0 mm
08:31 -11.8 °C -42.1 °C 34669.3 hPa East 7.7 km/h 10.3 km/h 1 % 0 mm
08:46 -11.3 °C -41.7 °C 34669.3 hPa East 5.1 km/h 7.7 km/h 1 % 0 mm
09:01 -11 °C -41.6 °C 34682.8 hPa East 2.6 km/h 5.1 km/h 1 % 0 mm
09:16 -10.6 °C -41.3 °C 34682.8 hPa Calm   7.7 km/h 1 % 0 mm
09:31 -9.9 °C -40.8 °C 34682.8 hPa East 5.1 km/h 10.3 km/h 1 % 0 mm
09:46 -8.3 °C -21.6 °C 34682.8 hPa East 2.6 km/h 5.1 km/h 19 % 0 mm
10:01 -7.9 °C -12.8 °C 34682.8 hPa Calm   7.7 km/h 56 % 0 mm
10:16 -7.7 °C -11.8 °C 34682.8 hPa East 12.9 km/h 15.6 km/h 62 % 0 mm
10:31 -7.7 °C -11.4 °C 34682.8 hPa Calm   5.1 km/h 65 % 0 mm
10:46 -7.4 °C -11.3 °C 34682.8 hPa East 2.6 km/h 10.3 km/h 64 % 0 mm
11:01 -7.2 °C -11.6 °C 34682.8 hPa East 7.7 km/h 15.6 km/h 60 % 0 mm
11:16 -7.2 °C -11.6 °C 34682.8 hPa East 5.1 km/h 7.7 km/h 60 % 0 mm
11:31 -6.9 °C -11.9 °C 34682.8 hPa SE 5.1 km/h 18.2 km/h 56 % 0 mm
11:46 -6.6 °C -11.2 °C 34682.8 hPa ESE 7.7 km/h 15.6 km/h 59 % 0 mm
12:01 -6.3 °C -11.3 °C 34682.8 hPa ESE 5.1 km/h 25.9 km/h 57 % 0 mm
12:16 -6.6 °C -11.8 °C 34669.3 hPa ESE 7.7 km/h 18.2 km/h 55 % 0 mm
12:31 -5.8 °C -11.3 °C 34669.3 hPa ENE 10.3 km/h 25.9 km/h 53 % 0 mm
12:46 -5.9 °C -11.6 °C 34659.1 hPa East 18.2 km/h 18.2 km/h 52 % 0 mm
13:01 -5.5 °C -11.6 °C 34659.1 hPa East 5.1 km/h 23.3 km/h 50 % 0 mm
13:16 -5.4 °C -11.6 °C 34659.1 hPa SSE 2.6 km/h 15.6 km/h 50 % 0 mm
13:31 -5.7 °C -10.9 °C 34645.6 hPa South 7.7 km/h 10.3 km/h 55 % 0 mm
13:46 -5.4 °C -10.8 °C 34645.6 hPa SE 5.1 km/h 7.7 km/h 54 % 0 mm
14:01 -5.2 °C -11.3 °C 34635.4 hPa SSE 5.1 km/h 15.6 km/h 50 % 0 mm
14:16 -5.1 °C -11.1 °C 34635.4 hPa SE 20.8 km/h 20.8 km/h 50 % 0 mm
14:31 -5.1 °C -10.8 °C 34625.2 hPa ESE 10.3 km/h 25.9 km/h 52 % 0 mm
14:46 -4.6 °C -10.9 °C 34625.2 hPa East 7.7 km/h 20.8 km/h 49 % 0 mm
15:01 -4.4 °C -10.7 °C 34611.7 hPa ESE 2.6 km/h 23.3 km/h 49 % 0 mm
15:16 -4.3 °C -10.8 °C 34611.7 hPa East 7.7 km/h 15.6 km/h 48 % 0 mm
15:31 -4.3 °C -11 °C 34601.5 hPa East 7.7 km/h 20.8 km/h 47 % 0 mm
15:46 -4.2 °C -10.7 °C 34601.5 hPa ESE 15.6 km/h 18.2 km/h 48 % 0 mm
16:01 -4.1 °C -10.6 °C 34591.4 hPa SE 5.1 km/h 23.3 km/h 48 % 0 mm
16:16 -4 °C -10.7 °C 34591.4 hPa ESE 15.6 km/h 18.2 km/h 47 % 0 mm
16:31 -4.1 °C -10.6 °C 34591.4 hPa ESE 5.1 km/h 18.2 km/h 48 % 0 mm
16:46 -3.8 °C -10.4 °C 34577.8 hPa SE 7.7 km/h 20.8 km/h 48 % 0 mm
17:01 -4 °C -10.6 °C 34567.7 hPa SE 5.1 km/h 15.6 km/h 48 % 0 mm
17:16 -3.4 °C -10.4 °C 34567.7 hPa East 5.1 km/h 12.9 km/h 46 % 0 mm
17:31 -3.4 °C -10.6 °C 34554.1 hPa East 7.7 km/h 20.8 km/h 45 % 0 mm
17:46 -3.7 °C -10.8 °C 34554.1 hPa ENE 2.6 km/h 10.3 km/h 45 % 0 mm
18:01 -4.1 °C -10.6 °C 34554.1 hPa NE 10.3 km/h 12.9 km/h 48 % 0 mm
Gegevens verzameld door Weather Underground - 1.75 mb

Script ontwikkeld door  Jim McMurry - jmcmurry@mwt.net Aangepast voor de template door  Wim van der Kuil - Leuven-Template.eu